createdAt,value
2023-04-14T00:14:27.929Z,2.4
2023-04-14T00:29:48.901Z,2.5
2023-04-14T00:45:09.875Z,2.5
2023-04-14T01:00:30.837Z,2
2023-04-14T01:15:51.819Z,2.6
2023-04-14T01:31:12.767Z,1.5
2023-04-14T01:46:33.711Z,2.5
2023-04-14T02:01:53.698Z,2.7
2023-04-14T02:17:14.678Z,3.7
2023-04-14T02:32:35.641Z,2.7
2023-04-14T02:47:56.604Z,2
2023-04-14T03:03:17.570Z,2.9
2023-04-14T03:18:38.530Z,2.1
2023-04-14T03:33:58.527Z,2.5
2023-04-14T03:49:19.499Z,2.5
2023-04-14T04:04:40.423Z,2.5
2023-04-14T04:20:01.347Z,3
2023-04-14T04:35:22.267Z,2.1
2023-04-14T04:50:43.201Z,2.5
2023-04-14T05:06:04.129Z,2.7
2023-04-14T05:21:25.061Z,2.8
2023-04-14T05:36:45.989Z,3
2023-04-14T05:52:06.919Z,2.2
2023-04-14T06:07:27.822Z,2.9
2023-04-14T06:22:48.753Z,2.3
2023-04-14T06:38:09.682Z,2.3
2023-04-14T06:53:29.624Z,2.5
2023-04-14T07:08:50.552Z,2.3
2023-04-14T07:24:11.472Z,2.7
2023-04-14T07:39:32.404Z,2.5
2023-04-14T07:54:53.317Z,2.3
2023-04-14T08:10:14.000Z,3.7
2023-04-14T08:25:35.167Z,2.5
2023-04-14T08:26:56.239Z,3.2
2023-04-14T08:28:17.307Z,4.2
2023-04-14T08:29:38.372Z,4.1
2023-04-14T08:30:59.435Z,3.6
2023-04-14T08:32:20.500Z,3.4
2023-04-14T08:33:41.567Z,3.4
2023-04-14T08:35:01.658Z,3.5
2023-04-14T08:36:22.728Z,2.8
2023-04-14T08:37:43.796Z,3.2
2023-04-14T08:39:04.849Z,3
2023-04-14T08:40:25.910Z,2.9
2023-04-14T08:41:46.991Z,3.5
2023-04-14T08:43:08.041Z,3.2
2023-04-14T08:44:29.117Z,3.1
2023-04-14T08:45:50.181Z,2.9
2023-04-14T08:47:11.252Z,2.8
2023-04-14T08:48:32.324Z,3.3
2023-04-14T08:49:53.372Z,3.4
2023-04-14T08:51:14.444Z,3.2
2023-04-14T08:52:34.527Z,2.9
2023-04-14T08:53:55.000Z,2.9
2023-04-14T08:55:16.645Z,2.9
2023-04-14T08:56:37.717Z,2.8
2023-04-14T08:57:58.800Z,2.8
2023-04-14T08:59:19.000Z,2.7
2023-04-14T09:00:40.926Z,2.9
2023-04-14T09:02:01.992Z,3.1
2023-04-14T09:03:23.064Z,2.8
2023-04-14T09:04:44.118Z,2.6
2023-04-14T09:06:05.198Z,3
2023-04-14T09:07:26.262Z,2.9
2023-04-14T09:08:47.326Z,3.1
2023-04-14T09:10:07.414Z,2.8
2023-04-14T09:11:28.497Z,2.3
2023-04-14T09:12:49.567Z,2.4
2023-04-14T09:14:10.629Z,2.2
2023-04-14T09:15:31.685Z,2.5
2023-04-14T09:16:52.756Z,2.5
2023-04-14T09:18:13.819Z,2.3
2023-04-14T09:19:34.884Z,2.5
2023-04-14T09:20:55.949Z,2.4
2023-04-14T09:22:17.018Z,3.1
2023-04-14T09:23:38.089Z,2.5
2023-04-14T09:24:59.153Z,2.1
2023-04-14T09:26:20.212Z,3
2023-04-14T09:27:40.293Z,2.4
2023-04-14T09:29:01.374Z,2.6
2023-04-14T09:30:22.450Z,2.2
2023-04-14T09:31:43.513Z,2
2023-04-14T09:33:04.578Z,2.3
2023-04-14T09:34:25.644Z,2.5
2023-04-14T09:35:46.700Z,2.2
2023-04-14T09:37:07.766Z,2.1
2023-04-14T09:38:28.835Z,2.2
2023-04-14T09:39:49.910Z,2.5
2023-04-14T09:41:10.964Z,2.6
2023-04-14T09:42:32.031Z,2
2023-04-14T09:43:53.097Z,2.1
2023-04-14T09:45:13.185Z,2.1
2023-04-14T09:46:34.257Z,2
2023-04-14T09:47:55.312Z,2.3
2023-04-14T09:49:16.383Z,2.1
2023-04-14T09:50:37.449Z,2.6
2023-04-14T09:51:58.515Z,2.2
2023-04-14T09:53:19.570Z,1.7
2023-04-14T09:54:40.660Z,2.1
2023-04-14T09:56:01.709Z,2
2023-04-14T09:57:22.787Z,2.1
2023-04-14T09:58:43.849Z,2
2023-04-14T10:00:04.906Z,1.9
2023-04-14T10:01:25.986Z,2.2
2023-04-14T10:02:46.055Z,2.1
2023-04-14T10:04:07.123Z,2.1
2023-04-14T10:05:28.202Z,2.2
2023-04-14T10:06:49.254Z,2
2023-04-14T10:08:10.337Z,2
2023-04-14T10:09:31.406Z,1.8
2023-04-14T10:10:52.467Z,2
2023-04-14T10:12:13.545Z,2.1
2023-04-14T10:13:34.611Z,2
2023-04-14T10:14:55.675Z,2
2023-04-14T10:16:16.740Z,2
2023-04-14T10:17:37.810Z,2
2023-04-14T10:18:58.873Z,1.9
2023-04-14T10:20:18.941Z,2.1
2023-04-14T10:21:40.014Z,2.2
2023-04-14T10:23:01.080Z,2.1
2023-04-14T10:24:22.155Z,2
2023-04-14T10:25:43.220Z,2
2023-04-14T10:27:04.275Z,2
2023-04-14T10:28:25.000Z,2
2023-04-14T10:29:46.405Z,2
2023-04-14T10:31:07.491Z,2
2023-04-14T10:32:28.546Z,1.6
2023-04-14T10:33:49.000Z,2
2023-04-14T10:35:10.704Z,1.8
2023-04-14T10:36:31.757Z,1.9
2023-04-14T10:37:51.838Z,1.5
2023-04-14T10:39:12.913Z,1.3
2023-04-14T10:40:33.981Z,1.6
2023-04-14T10:41:55.000Z,1.7
2023-04-14T10:43:16.112Z,1.9
2023-04-14T10:44:37.174Z,1.7
2023-04-14T10:45:58.238Z,1.7
2023-04-14T10:47:19.312Z,1.5
2023-04-14T10:48:40.369Z,1.5
2023-04-14T10:50:01.445Z,1.4
2023-04-14T10:51:22.517Z,1.6
2023-04-14T10:52:43.568Z,1.4
2023-04-14T10:54:04.635Z,1.6
2023-04-14T10:55:24.726Z,1.4
2023-04-14T10:56:45.796Z,1.6
2023-04-14T10:58:06.855Z,1.5
2023-04-14T10:59:27.933Z,1.6
2023-04-14T11:00:48.991Z,1.8
2023-04-14T11:02:10.064Z,1.7
2023-04-14T11:03:31.000Z,1.7
2023-04-14T11:04:52.192Z,2.3
2023-04-14T11:06:13.251Z,1.7
2023-04-14T11:07:34.328Z,2
2023-04-14T11:08:55.397Z,1.6
2023-04-14T11:10:16.453Z,1.8
2023-04-14T11:11:37.526Z,1.8
2023-04-14T11:12:57.607Z,1.9
2023-04-14T11:14:18.000Z,1.8
2023-04-14T11:15:39.737Z,2.1
2023-04-14T11:17:00.810Z,2.2
2023-04-14T11:18:21.879Z,1.8
2023-04-14T11:19:42.942Z,1.9
2023-04-14T11:21:04.003Z,2.3
2023-04-14T11:22:25.069Z,2.2
2023-04-14T11:23:46.143Z,2.4
2023-04-14T11:25:07.221Z,2.4
2023-04-14T11:26:28.270Z,2.1
2023-04-14T11:27:49.339Z,2.2
2023-04-14T11:29:10.398Z,2.2
2023-04-14T11:30:30.500Z,2.2
2023-04-14T11:31:51.559Z,2.4
2023-04-14T11:33:12.635Z,2.3
2023-04-14T11:34:33.688Z,2.1
2023-04-14T11:35:54.762Z,2.3
2023-04-14T11:37:15.819Z,2.6
2023-04-14T11:38:36.888Z,2.4
2023-04-14T11:41:19.035Z,2.5
2023-04-14T11:42:40.092Z,2.4
2023-04-14T11:44:01.176Z,2.3
2023-04-14T11:45:22.229Z,2.2
2023-04-14T11:46:43.308Z,1.8
2023-04-14T11:48:03.383Z,1.7
2023-04-14T11:49:24.442Z,1.8
2023-04-14T11:50:45.514Z,1.8
2023-04-14T11:52:06.586Z,1.6
2023-04-14T11:53:27.656Z,1.8
2023-04-14T11:54:48.730Z,1.8
2023-04-14T11:56:09.791Z,1.8
2023-04-14T11:57:30.862Z,1.6
2023-04-14T11:58:51.911Z,2.1
2023-04-14T12:00:12.977Z,1.8
2023-04-14T12:01:34.062Z,1.8
2023-04-14T12:02:55.116Z,1.6
2023-04-14T12:04:16.172Z,1.5
2023-04-14T12:05:36.268Z,1.6
2023-04-14T12:06:57.343Z,1.8
2023-04-14T12:08:18.403Z,1.8
2023-04-14T12:09:39.483Z,2
2023-04-14T12:11:00.533Z,2.1
2023-04-14T12:12:21.605Z,2.4
2023-04-14T12:13:42.671Z,2.2
2023-04-14T12:15:03.736Z,1.7
2023-04-14T12:16:24.791Z,1.9
2023-04-14T12:17:45.877Z,2.1
2023-04-14T12:19:06.000Z,2
2023-04-14T12:20:27.997Z,1.6
2023-04-14T12:21:49.083Z,1.9
2023-04-14T12:23:09.156Z,1.9
2023-04-14T12:24:30.219Z,1.9
2023-04-14T12:25:51.292Z,2.1
2023-04-14T12:27:12.355Z,2.1
2023-04-14T12:29:54.490Z,1.4
2023-04-14T12:31:14.576Z,1.5
2023-04-14T12:32:35.634Z,1.6
2023-04-14T12:33:56.714Z,1.6
2023-04-14T12:35:17.772Z,1.7
2023-04-14T12:36:38.848Z,1.7
2023-04-14T12:37:59.905Z,1.7
2023-04-14T12:39:20.974Z,1.7
2023-04-14T12:40:42.054Z,1.6
2023-04-14T12:42:03.116Z,1.8
2023-04-14T12:43:24.186Z,1.6
2023-04-14T12:44:45.261Z,1.8
2023-04-14T12:46:06.000Z,1.6
2023-04-14T12:47:27.389Z,1.6
2023-04-14T12:48:47.475Z,1.6
2023-04-14T12:50:08.543Z,1.7
2023-04-14T12:51:29.595Z,1.3
2023-04-14T12:52:50.677Z,1.5
2023-04-14T12:54:11.751Z,1.8
2023-04-14T12:55:32.822Z,1.4
2023-04-14T12:56:53.000Z,1.3
2023-04-14T12:58:14.938Z,1.5
2023-04-14T12:59:36.019Z,1.4
2023-04-14T13:00:57.095Z,1.6
2023-04-14T13:02:18.160Z,1.4
2023-04-14T13:03:39.224Z,1.4
2023-04-14T13:05:00.295Z,1.5
2023-04-14T13:06:20.365Z,1.5
2023-04-14T13:07:41.445Z,1.4
2023-04-14T13:09:02.517Z,1.4
2023-04-14T13:10:23.567Z,1
2023-04-14T13:11:44.634Z,1.3
2023-04-14T13:13:05.706Z,1.3
2023-04-14T13:14:26.781Z,1.2
2023-04-14T13:15:47.823Z,1.4
2023-04-14T13:17:08.915Z,1.3
2023-04-14T13:18:29.982Z,1.1
2023-04-14T13:19:51.047Z,1.4
2023-04-14T13:21:12.105Z,1.3
2023-04-14T13:22:33.179Z,1.2
2023-04-14T13:23:53.272Z,1.1
2023-04-14T13:25:14.333Z,1.4
2023-04-14T13:26:35.000Z,1.1
2023-04-14T13:27:56.469Z,1.2
2023-04-14T13:29:17.532Z,1.1
2023-04-14T13:30:38.603Z,1
2023-04-14T13:31:59.649Z,1.1
2023-04-14T13:33:20.732Z,1.4
2023-04-14T13:34:41.791Z,1.3
2023-04-14T13:36:02.863Z,1.2
2023-04-14T13:37:23.926Z,1.2
2023-04-14T13:38:45.013Z,1.2
2023-04-14T13:40:06.082Z,1.2
2023-04-14T13:41:26.162Z,1.1
2023-04-14T13:42:47.228Z,1.3
2023-04-14T13:44:08.288Z,1.1
2023-04-14T13:45:29.000Z,1.3
2023-04-14T13:46:50.414Z,1.3
2023-04-14T13:48:11.504Z,1.3
2023-04-14T13:49:32.558Z,1.1
2023-04-14T13:50:53.619Z,1.3
2023-04-14T13:52:14.686Z,1.2
2023-04-14T13:53:35.760Z,1.4
2023-04-14T13:54:56.830Z,1.1
2023-04-14T13:56:17.888Z,1.1
2023-04-14T13:57:38.959Z,1
2023-04-14T13:58:59.040Z,1.3
2023-04-14T14:00:20.104Z,1.1
2023-04-14T14:01:41.181Z,1.2
2023-04-14T14:03:02.241Z,1.1
2023-04-14T14:04:23.310Z,1.1
2023-04-14T14:05:44.375Z,1.2
2023-04-14T14:07:05.453Z,1.2
2023-04-14T14:08:26.505Z,1.5
2023-04-14T14:09:47.590Z,1.3
2023-04-14T14:11:08.632Z,1.3
2023-04-14T14:12:29.704Z,1.2
2023-04-14T14:13:50.795Z,1.5
2023-04-14T14:15:11.845Z,1.3
2023-04-14T14:16:31.932Z,1.4
2023-04-14T14:17:52.992Z,1.6
2023-04-14T14:19:14.069Z,1.1
2023-04-14T14:20:35.127Z,1.6
2023-04-14T14:21:56.196Z,1.5
2023-04-14T14:23:17.258Z,1.5
2023-04-14T14:24:38.312Z,1.2
2023-04-14T14:25:59.400Z,1.3
2023-04-14T14:27:20.481Z,1.4
2023-04-14T14:28:41.536Z,1.5
2023-04-14T14:30:02.613Z,1.5
2023-04-14T14:31:23.000Z,1.5
2023-04-14T14:32:44.760Z,1.8
2023-04-14T14:34:04.841Z,1.2
2023-04-14T14:35:25.910Z,1.4
2023-04-14T14:36:46.967Z,1.7
2023-04-14T14:38:08.032Z,1.4
2023-04-14T14:39:29.099Z,1.5
2023-04-14T14:40:50.172Z,1.4
2023-04-14T14:42:11.223Z,1.3
2023-04-14T14:43:32.307Z,1.2
2023-04-14T14:44:53.355Z,1.4
2023-04-14T14:46:14.436Z,1.3
2023-04-14T14:47:35.501Z,1.4
2023-04-14T14:48:56.558Z,1.4
2023-04-14T14:50:17.637Z,1.4
2023-04-14T14:51:37.712Z,1.5
2023-04-14T14:52:58.782Z,1.6
2023-04-14T14:54:19.839Z,1.5
2023-04-14T14:55:40.914Z,1.3
2023-04-14T14:57:01.975Z,1.6
2023-04-14T14:58:23.039Z,1.6
2023-04-14T14:59:44.119Z,1.4
2023-04-14T15:01:05.000Z,1.4
2023-04-14T15:02:26.255Z,1.4
2023-04-14T15:03:47.320Z,1.5
2023-04-14T15:05:08.370Z,1.4
2023-04-14T15:06:29.452Z,1.3
2023-04-14T15:07:50.529Z,1.6
2023-04-14T15:09:10.601Z,1.3
2023-04-14T15:10:31.654Z,1.5
2023-04-14T15:11:52.000Z,1.3
2023-04-14T15:13:13.789Z,1.5
2023-04-14T15:14:34.870Z,1.5
2023-04-14T15:15:55.939Z,1.3
2023-04-14T15:17:17.006Z,1.6
2023-04-14T15:18:38.068Z,1.5
2023-04-14T15:19:59.135Z,1.3
2023-04-14T15:21:20.206Z,1.8
2023-04-14T15:22:41.254Z,2
2023-04-14T15:24:02.330Z,1.5
2023-04-14T15:25:23.412Z,1.7
2023-04-14T15:26:43.484Z,1.6
2023-04-14T15:28:04.547Z,1.9
2023-04-14T15:29:25.601Z,1.6
2023-04-14T15:30:46.000Z,1.6
2023-04-14T15:32:07.760Z,1.6
2023-04-14T15:33:28.807Z,1.4
2023-04-14T15:34:49.886Z,1.9
2023-04-14T15:36:10.939Z,1.6
2023-04-14T15:37:32.013Z,1.7
2023-04-14T15:38:53.094Z,1.6
2023-04-14T15:40:14.159Z,1.5
2023-04-14T15:41:35.214Z,1.7
2023-04-14T15:42:56.284Z,1.5
2023-04-14T15:44:16.370Z,1.6
2023-04-14T15:45:37.420Z,1.8
2023-04-14T15:46:58.502Z,1.5
2023-04-14T15:48:19.559Z,2
2023-04-14T15:49:40.627Z,1.7
2023-04-14T15:51:01.696Z,1.6
2023-04-14T15:52:22.757Z,1.7
2023-04-14T15:53:43.818Z,1.5
2023-04-14T15:55:04.899Z,1.6
2023-04-14T15:56:25.953Z,1.5
2023-04-14T15:57:47.000Z,1.5
2023-04-14T15:59:08.095Z,1.8
2023-04-14T16:00:29.157Z,1.3
2023-04-14T16:01:49.237Z,1.5
2023-04-14T16:03:10.295Z,1.6
2023-04-14T16:04:31.375Z,1.7
2023-04-14T16:05:52.436Z,1.6
2023-04-14T16:07:13.511Z,1.7
2023-04-14T16:08:34.000Z,1.8
2023-04-14T16:09:55.620Z,1.5
2023-04-14T16:11:16.709Z,1.6
2023-04-14T16:12:37.768Z,1.8
2023-04-14T16:13:58.821Z,1.5
2023-04-14T16:15:19.905Z,2
2023-04-14T16:16:40.958Z,1.6
2023-04-14T16:18:02.045Z,1.8
2023-04-14T16:19:22.000Z,1.7
2023-04-14T16:20:43.196Z,1.9
2023-04-14T16:22:04.270Z,1.9
2023-04-14T16:23:25.332Z,1.8
2023-04-14T16:24:46.392Z,1.9
2023-04-14T16:26:07.450Z,1.9
2023-04-14T16:27:28.527Z,1.8
2023-04-14T16:28:49.602Z,1.9
2023-04-14T16:30:10.655Z,1.9
2023-04-14T16:31:31.724Z,2.1
2023-04-14T16:32:52.801Z,1.8
2023-04-14T16:34:13.861Z,1.8
2023-04-14T16:35:34.930Z,1.9
2023-04-14T16:36:55.010Z,2
2023-04-14T16:38:16.076Z,2.2
2023-04-14T16:39:37.148Z,1.8
2023-04-14T16:40:58.197Z,1.8
2023-04-14T16:42:19.271Z,1.7
2023-04-14T16:43:40.331Z,1.9
2023-04-14T16:45:01.420Z,1.8
2023-04-14T16:46:22.000Z,1.9
2023-04-14T16:47:43.551Z,1.9
2023-04-14T16:49:04.607Z,2.1
2023-04-14T16:50:25.666Z,1.8
2023-04-14T16:51:46.749Z,2.1
2023-04-14T16:53:07.802Z,2.1
2023-04-14T16:54:27.882Z,2
2023-04-14T16:55:48.977Z,1.9
2023-04-14T16:57:10.021Z,1.8
2023-04-14T16:58:31.096Z,2.1
2023-04-14T16:59:52.181Z,1.9
2023-04-14T17:01:13.251Z,2.1
2023-04-14T17:02:33.319Z,2.2
2023-04-14T17:03:54.405Z,2.2
2023-04-14T17:05:15.465Z,2.3
2023-04-14T17:06:36.519Z,2.1
2023-04-14T17:07:57.585Z,2.1
2023-04-14T17:09:18.674Z,2.1
2023-04-14T17:10:39.728Z,2.5
2023-04-14T17:12:00.793Z,2.2
2023-04-14T17:13:21.865Z,2.1
2023-04-14T17:14:42.934Z,2.5
2023-04-14T17:16:04.000Z,2.2
2023-04-14T17:17:25.070Z,2.4
2023-04-14T17:18:46.124Z,2.4
2023-04-14T17:20:06.205Z,2.7
2023-04-14T17:21:27.264Z,2.6
2023-04-14T17:22:48.349Z,2.3
2023-04-14T17:24:09.391Z,2.4
2023-04-14T17:25:30.490Z,2.9
2023-04-14T17:26:51.526Z,2.5
2023-04-14T17:28:12.605Z,2.7
2023-04-14T17:29:33.000Z,2.3
2023-04-14T17:30:54.742Z,2.3
2023-04-14T17:32:15.806Z,2.5
2023-04-14T17:33:36.871Z,2.6
2023-04-14T17:34:57.934Z,2.7
2023-04-14T17:36:19.006Z,2.6
2023-04-14T17:37:39.079Z,2.9
2023-04-14T17:39:00.159Z,2.5
2023-04-14T17:40:21.000Z,2.6
2023-04-14T17:41:42.270Z,2.6
2023-04-14T17:43:03.357Z,2.9
2023-04-14T17:44:24.420Z,2.7
2023-04-14T17:45:45.495Z,2.6
2023-04-14T17:47:06.542Z,2.7
2023-04-14T17:48:27.637Z,2.6
2023-04-14T17:49:48.685Z,2.7
2023-04-14T17:51:09.738Z,3
2023-04-14T17:52:30.823Z,2.8
2023-04-14T17:53:51.000Z,2.8
2023-04-14T17:55:11.957Z,2.6
2023-04-14T17:56:33.041Z,2.7
2023-04-14T17:57:54.123Z,3.1
2023-04-14T17:59:15.177Z,2.8
2023-04-14T18:00:36.000Z,2.9
2023-04-14T18:01:57.299Z,3
2023-04-14T18:03:18.348Z,2.9
2023-04-14T18:04:39.414Z,2.8
2023-04-14T18:06:00.502Z,2.8
2023-04-14T18:07:21.575Z,2.9
2023-04-14T18:08:42.632Z,3
2023-04-14T18:10:03.000Z,3
2023-04-14T18:11:24.755Z,3.2
2023-04-14T18:12:44.843Z,3.2
2023-04-14T18:14:05.893Z,3.2
2023-04-14T18:15:26.972Z,2.7
2023-04-14T18:16:48.041Z,3.2
2023-04-14T18:18:09.125Z,3.3
2023-04-14T18:19:30.168Z,2.9
2023-04-14T18:20:51.251Z,3
2023-04-14T18:22:12.318Z,2.9
2023-04-14T18:23:33.383Z,2.9
2023-04-14T18:24:54.489Z,3.3
2023-04-14T18:26:15.562Z,2.7
2023-04-14T18:27:36.612Z,3.3
2023-04-14T18:28:57.678Z,2.9
2023-04-14T18:30:17.800Z,3.3
2023-04-14T18:31:38.909Z,3.7
2023-04-14T18:33:00.029Z,3.5
2023-04-14T18:34:21.000Z,4.3
2023-04-14T18:35:42.244Z,3.7
2023-04-14T18:37:03.352Z,3.7
2023-04-14T18:38:24.471Z,3.6
2023-04-14T18:39:45.587Z,3.8
2023-04-14T18:41:06.682Z,3.9
2023-04-14T18:42:27.790Z,3.2
2023-04-14T18:43:48.902Z,3.1
2023-04-14T18:45:10.000Z,3.7
2023-04-14T18:46:31.115Z,3.2
2023-04-14T18:47:51.245Z,3.6
2023-04-14T18:49:12.359Z,3.8
2023-04-14T18:50:33.000Z,4.1
2023-04-14T18:51:54.578Z,3.9
2023-04-14T18:53:15.000Z,3.7
2023-04-14T18:54:36.761Z,3.5
2023-04-14T18:55:57.902Z,3.7
2023-04-14T18:57:19.014Z,3.7
2023-04-14T18:58:40.088Z,3.4
2023-04-14T19:00:01.223Z,3.6
2023-04-14T19:01:22.328Z,3.3
2023-04-14T19:02:43.434Z,3.5
2023-04-14T19:04:04.534Z,3.3
2023-04-14T19:05:24.667Z,3.7
2023-04-14T19:06:45.775Z,2.9
2023-04-14T19:08:06.862Z,3.3
2023-04-14T19:09:27.969Z,3.1
2023-04-14T19:10:49.093Z,3.4
2023-04-14T19:12:10.204Z,3
2023-04-14T19:13:31.333Z,3.4
2023-04-14T19:14:52.428Z,3.3
2023-04-14T19:16:13.537Z,3.2
2023-04-14T19:17:34.654Z,3
2023-04-14T19:18:55.759Z,2.9
2023-04-14T19:20:16.859Z,3.4
2023-04-14T19:21:37.973Z,3
2023-04-14T19:22:58.098Z,3.2
2023-04-14T19:24:19.223Z,3.1
2023-04-14T19:25:40.315Z,3.2
2023-04-14T19:27:01.415Z,3
2023-04-14T19:28:22.541Z,3.2
2023-04-14T19:29:43.651Z,3
2023-04-14T19:31:04.753Z,3.3
2023-04-14T19:32:25.858Z,3.4
2023-04-14T19:33:46.964Z,3.2
2023-04-14T19:35:08.071Z,3.3
2023-04-14T19:36:29.177Z,3.4
2023-04-14T19:39:11.385Z,3.1
2023-04-14T19:40:31.532Z,3.6
2023-04-14T19:41:52.643Z,3.4
2023-04-14T19:43:13.745Z,3.7
2023-04-14T19:44:34.866Z,3.4
2023-04-14T19:45:55.956Z,3.9
2023-04-14T19:47:17.067Z,3.6
2023-04-14T19:48:38.173Z,3.4
2023-04-14T19:49:59.292Z,3.4
2023-04-14T19:51:20.399Z,3.1
2023-04-14T19:52:41.505Z,3.4
2023-04-14T19:54:02.606Z,3.5
2023-04-14T19:55:23.715Z,3.2
2023-04-14T19:56:44.837Z,3.7
2023-04-14T19:58:04.958Z,3.2
2023-04-14T19:59:26.066Z,3.8
2023-04-14T20:00:47.167Z,3.2
2023-04-14T20:02:08.288Z,3.2
2023-04-14T20:03:29.391Z,3.3
2023-04-14T20:04:50.491Z,3.3
2023-04-14T20:06:11.580Z,3.8
2023-04-14T20:07:32.707Z,3.6
2023-04-14T20:08:53.812Z,3.6
2023-04-14T20:10:14.939Z,3.2
2023-04-14T20:11:36.030Z,3.5
2023-04-14T20:12:57.153Z,3.4
2023-04-14T20:14:18.260Z,3.6
2023-04-14T20:15:38.376Z,3.5
2023-04-14T20:16:59.493Z,3.6
2023-04-14T20:18:20.594Z,3.3
2023-04-14T20:19:41.701Z,3.4
2023-04-14T20:21:02.816Z,3.8
2023-04-14T20:22:23.893Z,3.6
2023-04-14T20:23:45.018Z,3.5
2023-04-14T20:25:06.138Z,3.4
2023-04-14T20:26:27.243Z,3.6
2023-04-14T20:27:48.347Z,3.7
2023-04-14T20:29:09.464Z,3
2023-04-14T20:30:30.571Z,3.3
2023-04-14T20:31:51.661Z,3.4
2023-04-14T20:33:11.791Z,3
2023-04-14T20:34:32.911Z,2.9
2023-04-14T20:35:54.008Z,3.2
2023-04-14T20:37:15.109Z,2.7
2023-04-14T20:38:36.238Z,2.5
2023-04-14T20:53:57.174Z,1.5
2023-04-14T21:09:18.173Z,1.5
2023-04-14T21:24:39.128Z,1.8
2023-04-14T21:40:00.097Z,2.1
2023-04-14T21:55:21.075Z,2.2
2023-04-14T22:10:42.031Z,1.5
2023-04-14T22:26:02.979Z,1.7
2023-04-14T22:41:23.978Z,1.4
2023-04-14T22:56:43.000Z,2.3
2023-04-14T23:12:04.000Z,1.1
2023-04-14T23:27:25.879Z,1.4
2023-04-14T23:42:46.000Z,2.1
2023-04-14T23:58:07.848Z,1.7
